Time;durP1;ratioP1;P1;durP2;ratioP2;P2;SDS_P1;SDS_P2;PMS_P1;PMS_P2;Temp;Humidity;BMP_temperature;BMP_pressure;BME280_temperature;BME280_humidity;BME280_pressure;Samples;Min_cycle;Max_cycle;Signal;HPM_P1;HPM_P2
2023/04/05 00:00:54;;;;;;;5.80;3.77;;;3.60;53.30;;;;;;6138739;23;20139;-70
2023/04/05 00:03:20;;;;;;;6.70;3.63;;;3.60;53.20;;;;;;6145312;23;20175;-72
2023/04/05 00:05:48;;;;;;;8.23;3.70;;;3.60;53.30;;;;;;6120246;23;20175;-71
2023/04/05 00:08:22;;;;;;;11.13;4.20;;;3.60;53.40;;;;;;6117263;23;20536;-72
2023/04/05 00:10:49;;;;;;;7.87;4.40;;;3.60;53.40;;;;;;6138497;23;20379;-71
2023/04/05 00:13:15;;;;;;;3.73;2.47;;;3.60;53.40;;;;;;6138809;23;20414;-71
2023/04/05 00:15:41;;;;;;;5.13;3.60;;;3.50;53.40;;;;;;6138784;23;20478;-72
2023/04/05 00:18:07;;;;;;;6.57;3.30;;;3.50;53.50;;;;;;6112504;23;20411;-71
2023/04/05 00:20:32;;;;;;;6.10;3.00;;;3.50;53.50;;;;;;6138783;23;20146;-71
2023/04/05 00:22:58;;;;;;;6.50;3.20;;;3.50;53.50;;;;;;6134034;23;20192;-71
2023/04/05 00:25:24;;;;;;;3.60;2.63;;;3.50;53.60;;;;;;6138290;23;20469;-74
2023/04/05 00:27:50;;;;;;;5.50;3.40;;;3.40;53.60;;;;;;6112933;23;20399;-72
2023/04/05 00:30:19;;;;;;;5.73;2.73;;;3.40;53.70;;;;;;6103545;23;20159;-71
2023/04/05 00:32:49;;;;;;;6.03;3.17;;;3.40;53.80;;;;;;6103300;23;20675;-72
2023/04/05 00:35:16;;;;;;;7.03;2.77;;;3.40;53.80;;;;;;6086265;23;20383;-72
2023/04/05 00:37:42;;;;;;;4.80;2.43;;;3.40;53.90;;;;;;6138245;23;20466;-71
2023/04/05 00:40:08;;;;;;;6.10;3.60;;;3.40;54.00;;;;;;6103110;23;20376;-71
2023/04/05 00:42:34;;;;;;;7.17;3.07;;;3.50;54.10;;;;;;6140941;23;20402;-71
2023/04/05 00:44:59;;;;;;;4.40;2.93;;;3.60;54.00;;;;;;6105220;23;20380;-71
2023/04/05 00:47:26;;;;;;;5.10;3.20;;;3.70;53.80;;;;;;6140250;23;20147;-72
2023/04/05 00:49:52;;;;;;;5.23;2.30;;;3.70;53.70;;;;;;6133741;23;20143;-71
2023/04/05 00:52:22;;;;;;;6.90;3.30;;;3.70;53.50;;;;;;6138836;23;20411;-72
2023/04/05 00:54:50;;;;;;;5.30;3.80;;;3.80;53.50;;;;;;6131028;23;20440;-70
2023/04/05 00:57:17;;;;;;;4.83;2.70;;;3.80;53.40;;;;;;6130676;23;20490;-71
2023/04/05 00:59:42;;;;;;;6.83;3.40;;;3.90;53.40;;;;;;6104463;23;20619;-72
2023/04/05 01:02:24;;;;;;;4.57;3.13;;;3.90;53.40;;;;;;6139879;23;20399;-71
2023/04/05 01:05:00;;;;;;;5.37;3.17;;;3.90;53.30;;;;;;6141953;23;20211;-71
2023/04/05 01:07:41;;;;;;;4.67;3.27;;;4.00;53.30;;;;;;6107677;23;20442;-71
2023/04/05 01:10:12;;;;;;;7.83;4.03;;;4.10;53.30;;;;;;6140131;23;20372;-70
2023/04/05 01:12:38;;;;;;;7.17;3.60;;;4.10;53.40;;;;;;6104361;23;20407;-71
2023/04/05 01:15:04;;;;;;;4.97;2.87;;;4.00;53.50;;;;;;6139977;23;20375;-72
2023/04/05 01:17:35;;;;;;;7.03;4.67;;;4.00;54.20;;;;;;6139527;23;20915;-70
2023/04/05 01:20:09;;;;;;;7.67;3.97;;;4.00;53.90;;;;;;6139839;23;20395;-71
2023/04/05 01:22:53;;;;;;;4.33;3.10;;;4.00;54.00;;;;;;6137158;23;20459;-71
2023/04/05 01:25:44;;;;;;;4.20;3.00;;;3.90;54.10;;;;;;6103928;23;20851;-71
2023/04/05 01:28:40;;;;;;;5.20;4.23;;;3.90;54.20;;;;;;6140310;23;20446;-72
2023/04/05 01:31:21;;;;;;;4.23;2.93;;;3.90;54.50;;;;;;6080096;23;20392;-71
2023/04/05 01:34:07;;;;;;;6.30;2.90;;;3.90;54.60;;;;;;6108827;23;20626;-72
2023/04/05 01:36:54;;;;;;;5.60;3.83;;;3.90;54.80;;;;;;6130610;23;20633;-72
2023/04/05 01:39:22;;;;;;;7.57;3.47;;;3.90;55.30;;;;;;6139886;23;20372;-71
2023/04/05 01:41:47;;;;;;;6.40;4.17;;;3.80;55.30;;;;;;6113419;23;20661;-72
2023/04/05 01:44:13;;;;;;;5.23;3.57;;;3.90;55.90;;;;;;6140350;23;20380;-71
2023/04/05 01:46:39;;;;;;;9.03;4.33;;;3.80;55.90;;;;;;6139930;23;20136;-70
2023/04/05 01:49:04;;;;;;;5.40;3.30;;;3.80;56.10;;;;;;6139102;23;20135;-71
2023/04/05 01:51:30;;;;;;;8.00;4.10;;;3.80;56.50;;;;;;6103911;23;20182;-71
2023/04/05 01:53:56;;;;;;;7.20;4.03;;;3.80;56.80;;;;;;6131938;23;20156;-70
2023/04/05 01:56:21;;;;;;;6.63;4.00;;;3.70;56.90;;;;;;6139821;23;20387;-71
2023/04/05 01:58:47;;;;;;;6.97;4.40;;;3.70;57.00;;;;;;6128655;23;20198;-71
2023/04/05 02:01:13;;;;;;;5.33;3.50;;;3.70;57.10;;;;;;6139690;23;20219;-72
2023/04/05 02:03:38;;;;;;;5.50;4.10;;;3.60;57.50;;;;;;6138960;23;20136;-72
2023/04/05 02:06:04;;;;;;;5.60;4.03;;;3.60;57.90;;;;;;6139683;23;20542;-73
2023/04/05 02:08:30;;;;;;;5.40;3.90;;;3.50;58.20;;;;;;6139519;23;20140;-71
2023/04/05 02:10:56;;;;;;;5.50;4.10;;;3.60;58.70;;;;;;6139202;23;20379;-72
2023/04/05 02:13:22;;;;;;;7.10;4.13;;;3.50;59.00;;;;;;6103891;23;20156;-71
2023/04/05 02:15:49;;;;;;;5.70;4.17;;;3.50;59.40;;;;;;6103249;23;20152;-71
2023/04/05 02:18:15;;;;;;;6.20;3.90;;;3.50;59.80;;;;;;6139133;23;20437;-71
2023/04/05 02:20:41;;;;;;;4.90;3.67;;;3.40;59.90;;;;;;6080481;23;20584;-72
2023/04/05 02:23:07;;;;;;;10.90;4.60;;;3.40;60.30;;;;;;6103771;23;20443;-72
2023/04/05 02:25:33;;;;;;;7.07;4.37;;;3.40;60.60;;;;;;6103681;23;20855;-71
2023/04/05 02:27:58;;;;;;;6.80;4.70;;;3.50;61.00;;;;;;6139306;23;20380;-72
2023/04/05 02:30:27;;;;;;;7.60;4.40;;;3.50;61.10;;;;;;6103834;23;20510;-71
2023/04/05 02:32:54;;;;;;;8.20;3.90;;;3.40;61.40;;;;;;6138798;23;20180;-73
2023/04/05 02:35:20;;;;;;;7.10;3.80;;;3.40;61.80;;;;;;6102664;23;20459;-73
2023/04/05 02:37:45;;;;;;;8.90;4.40;;;3.30;62.00;;;;;;6103593;23;20415;-71
2023/04/05 02:40:14;;;;;;;6.83;3.90;;;3.40;61.90;;;;;;6103323;23;20176;-72
2023/04/05 02:42:40;;;;;;;6.50;3.67;;;3.40;61.70;;;;;;6138918;23;20164;-72
2023/04/05 02:45:07;;;;;;;4.80;3.73;;;3.30;62.10;;;;;;6139009;23;20785;-71
2023/04/05 02:47:33;;;;;;;9.43;5.17;;;3.30;62.70;;;;;;6103394;23;20825;-71
2023/04/05 02:50:00;;;;;;;6.77;4.23;;;3.20;63.70;;;;;;6103336;23;20448;-72
2023/04/05 02:52:31;;;;;;;12.00;4.87;;;3.10;64.50;;;;;;6103583;23;20705;-70
2023/04/05 02:54:56;;;;;;;6.57;3.90;;;3.00;65.10;;;;;;6102916;23;20380;-71
2023/04/05 02:57:27;;;;;;;6.30;3.53;;;2.90;66.20;;;;;;6138661;23;20482;-72
2023/04/05 03:00:03;;;;;;;8.40;3.70;;;2.90;67.20;;;;;;6104082;23;20487;-72
2023/04/05 03:02:30;;;;;;;6.50;4.03;;;2.70;67.60;;;;;;6103316;23;20414;-70
2023/04/05 03:04:56;;;;;;;5.57;4.07;;;2.70;69.20;;;;;;6101740;23;20387;-72
2023/04/05 03:07:24;;;;;;;6.67;4.13;;;2.60;70.10;;;;;;6138892;23;20136;-71
2023/04/05 03:09:50;;;;;;;5.53;3.53;;;2.60;70.50;;;;;;6104005;23;20392;-73
2023/04/05 03:12:16;;;;;;;9.33;4.70;;;2.60;71.70;;;;;;6103411;23;20705;-71
2023/04/05 03:14:42;;;;;;;7.40;4.10;;;2.50;73.90;;;;;;6103081;23;20403;-71
2023/04/05 03:17:12;;;;;;;7.27;3.77;;;2.50;73.80;;;;;;6103093;23;20250;-71
2023/04/05 03:19:41;;;;;;;9.17;4.80;;;2.50;74.10;;;;;;6137855;23;20435;-71
2023/04/05 03:22:14;;;;;;;8.37;4.07;;;2.50;76.60;;;;;;6102337;23;20475;-72
2023/04/05 03:24:41;;;;;;;5.10;3.93;;;2.40;76.80;;;;;;6102468;23;20387;-71
2023/04/05 03:27:07;;;;;;;5.07;4.57;;;2.40;78.30;;;;;;6102945;23;20423;-70
2023/04/05 03:29:41;;;;;;;6.57;4.60;;;2.50;77.40;;;;;;6130752;23;20376;-70
2023/04/05 03:32:12;;;;;;;5.73;3.90;;;2.40;77.90;;;;;;6109268;23;20682;-72
2023/04/05 03:34:45;;;;;;;7.60;4.50;;;2.40;78.80;;;;;;6102844;23;20583;-70
2023/04/05 03:37:12;;;;;;;8.30;3.83;;;2.30;79.40;;;;;;6103036;23;20423;-71
2023/04/05 03:39:44;;;;;;;5.13;3.73;;;2.30;80.90;;;;;;6106408;23;20439;-69
2023/04/05 03:42:10;;;;;;;6.57;4.73;;;2.20;81.40;;;;;;6141702;23;20399;-71
2023/04/05 03:44:36;;;;;;;6.30;4.03;;;2.20;82.50;;;;;;6103439;23;20414;-72
2023/04/05 03:47:01;;;;;;;5.97;4.10;;;2.10;83.00;;;;;;6103515;23;20383;-71
2023/04/05 03:49:29;;;;;;;5.97;4.23;;;2.10;83.20;;;;;;6105368;23;20542;-71
2023/04/05 03:51:55;;;;;;;4.90;3.70;;;2.10;84.00;;;;;;6104374;23;20491;-72
2023/04/05 03:54:20;;;;;;;5.40;3.77;;;2.00;84.60;;;;;;6128396;23;20552;-71
2023/04/05 03:56:46;;;;;;;7.13;4.10;;;2.00;86.00;;;;;;6138364;23;20150;-74
2023/04/05 03:59:15;;;;;;;3.07;2.70;;;2.00;85.80;;;;;;6105412;23;20148;-71
2023/04/05 04:01:41;;;;;;;5.53;3.10;;;1.90;86.10;;;;;;6104322;23;20415;-72
2023/04/05 04:04:07;;;;;;;4.70;3.03;;;1.80;86.90;;;;;;6102313;23;20159;-71
2023/04/05 04:06:32;;;;;;;5.93;3.83;;;1.80;87.80;;;;;;6138135;23;20375;-71
2023/04/05 04:08:58;;;;;;;8.73;4.80;;;1.80;88.70;;;;;;6102888;23;20524;-71
2023/04/05 04:11:24;;;;;;;8.03;4.10;;;1.70;89.60;;;;;;6103008;23;20661;-71
2023/04/05 04:13:51;;;;;;;7.37;4.50;;;1.80;90.20;;;;;;6103446;23;20816;-71
2023/04/05 04:16:22;;;;;;;5.37;4.17;;;1.80;90.30;;;;;;6139458;23;20773;-71
2023/04/05 04:19:08;;;;;;;7.53;4.63;;;1.80;90.30;;;;;;6109073;23;20860;-71
2023/04/05 04:21:57;;;;;;;8.13;4.20;;;1.80;90.50;;;;;;6111782;23;20403;-71
2023/04/05 04:24:49;;;;;;;5.13;3.57;;;1.70;91.00;;;;;;6140520;23;20463;-71
2023/04/05 04:27:42;;;;;;;5.40;3.23;;;1.60;91.70;;;;;;6104427;23;20670;-73
2023/04/05 04:30:34;;;;;;;4.97;3.50;;;1.60;91.80;;;;;;6088076;23;20380;-69
2023/04/05 04:33:30;;;;;;;5.80;3.23;;;1.50;92.20;;;;;;6110070;23;20387;-71
2023/04/05 04:36:16;;;;;;;6.00;4.07;;;1.50;92.70;;;;;;6103885;23;20450;-73
2023/04/05 04:39:13;;;;;;;3.63;2.77;;;1.40;92.90;;;;;;6105038;23;20884;-72
2023/04/05 04:41:57;;;;;;;8.63;4.03;;;1.40;93.40;;;;;;6116194;23;20371;-75
2023/04/05 04:44:53;;;;;;;8.13;4.20;;;1.40;93.50;;;;;;6138639;23;20399;-72
2023/04/05 04:47:32;;;;;;;6.73;4.07;;;1.40;93.70;;;;;;6080197;23;20379;-74
2023/04/05 04:50:15;;;;;;;4.17;3.70;;;1.40;93.80;;;;;;6094556;23;20447;-72
2023/04/05 04:52:41;;;;;;;4.43;3.10;;;1.30;94.50;;;;;;6110368;23;20442;-71
2023/04/05 04:55:08;;;;;;;9.43;3.63;;;1.30;94.40;;;;;;6143433;23;20376;-73
2023/04/05 04:57:34;;;;;;;5.40;3.67;;;1.30;94.50;;;;;;6112796;23;20416;-71
2023/04/05 05:00:00;;;;;;;4.57;4.17;;;1.30;94.70;;;;;;6149361;23;20808;-72
2023/04/05 05:02:26;;;;;;;5.10;3.80;;;1.20;94.70;;;;;;6115360;23;20400;-72
2023/04/05 05:04:52;;;;;;;9.40;4.30;;;1.30;95.10;;;;;;6149027;23;20140;-71
2023/04/05 05:07:18;;;;;;;4.63;3.07;;;1.20;95.20;;;;;;6149474;23;20377;-72
2023/04/05 05:09:44;;;;;;;5.30;3.83;;;1.20;95.30;;;;;;6151868;23;20140;-71
2023/04/05 05:12:10;;;;;;;7.37;4.03;;;1.20;95.40;;;;;;6125500;23;20400;-72
2023/04/05 05:14:37;;;;;;;6.20;3.90;;;1.30;95.60;;;;;;6149246;23;20457;-72
2023/04/05 05:17:05;;;;;;;6.90;3.80;;;1.20;95.50;;;;;;6116844;23;20199;-71
2023/04/05 05:19:31;;;;;;;5.03;3.53;;;1.30;95.50;;;;;;6149927;23;20403;-73
2023/04/05 05:21:59;;;;;;;4.83;4.03;;;1.30;95.40;;;;;;6090962;23;20396;-72
2023/04/05 05:24:26;;;;;;;4.83;3.37;;;1.40;95.50;;;;;;6065843;23;20391;-71
2023/04/05 05:26:52;;;;;;;7.37;4.13;;;1.30;95.30;;;;;;6119437;23;20636;-74
2023/04/05 05:29:19;;;;;;;5.73;4.10;;;1.40;95.20;;;;;;6085830;23;20396;-72
2023/04/05 05:31:45;;;;;;;8.03;5.10;;;1.50;95.00;;;;;;6086486;23;20892;-71
2023/04/05 05:34:11;;;;;;;8.87;5.40;;;1.60;94.50;;;;;;6121539;23;20369;-72
2023/04/05 05:36:39;;;;;;;8.00;4.43;;;1.60;93.70;;;;;;6084870;23;20160;-72
2023/04/05 05:39:06;;;;;;;8.93;4.67;;;1.70;93.10;;;;;;6095034;23;20408;-75
2023/04/05 05:41:35;;;;;;;8.80;5.47;;;1.80;92.40;;;;;;6097090;23;20444;-73
2023/04/05 05:44:00;;;;;;;5.47;4.60;;;1.80;91.30;;;;;;6119865;23;20373;-72
2023/04/05 05:46:26;;;;;;;7.30;5.10;;;1.90;90.40;;;;;;6119360;23;20375;-75
2023/04/05 05:48:52;;;;;;;9.17;4.70;;;1.90;89.30;;;;;;6120393;23;20145;-73
2023/04/05 05:51:18;;;;;;;9.30;4.67;;;2.00;87.40;;;;;;6094492;23;20205;-73
2023/04/05 05:53:44;;;;;;;7.43;4.40;;;2.00;86.30;;;;;;6040752;23;20160;-71
2023/04/05 05:56:10;;;;;;;6.40;4.83;;;2.10;86.40;;;;;;6086924;23;20631;-72
2023/04/05 05:58:37;;;;;;;8.23;4.90;;;2.10;86.40;;;;;;6119727;23;20419;-73
2023/04/05 06:01:04;;;;;;;7.43;5.30;;;2.10;85.60;;;;;;6119932;23;20140;-72
2023/04/05 06:03:30;;;;;;;6.80;5.10;;;2.20;84.20;;;;;;6093551;23;20381;-72
2023/04/05 06:05:57;;;;;;;5.53;4.40;;;2.30;83.40;;;;;;6100062;23;20369;-72
2023/04/05 06:08:23;;;;;;;5.80;4.77;;;2.40;83.30;;;;;;6063750;23;20284;-73
2023/04/05 06:10:51;;;;;;;5.83;4.40;;;2.30;82.80;;;;;;6121193;23;20396;-71
2023/04/05 06:13:17;;;;;;;6.53;5.20;;;2.40;82.90;;;;;;6088885;23;20436;-71
2023/04/05 06:15:43;;;;;;;5.90;4.43;;;2.50;81.30;;;;;;6087467;23;20420;-72
2023/04/05 06:18:09;;;;;;;9.57;4.47;;;2.60;79.10;;;;;;6097408;23;20165;-72
2023/04/05 06:20:39;;;;;;;6.27;4.87;;;2.70;77.70;;;;;;6121846;23;20133;-72
2023/04/05 06:23:08;;;;;;;8.40;5.13;;;2.70;77.50;;;;;;6087557;23;20459;-70
2023/04/05 06:25:33;;;;;;;6.93;4.90;;;2.80;75.60;;;;;;6086054;23;20388;-72
2023/04/05 06:27:59;;;;;;;6.97;4.43;;;2.90;74.70;;;;;;6084112;23;20444;-70
2023/04/05 06:30:25;;;;;;;5.70;5.03;;;2.90;73.20;;;;;;6120965;23;20273;-72
2023/04/05 06:32:53;;;;;;;12.43;5.53;;;3.00;72.20;;;;;;6085042;23;20438;-71
2023/04/05 06:35:20;;;;;;;6.90;4.80;;;3.00;71.10;;;;;;6065731;23;20153;-72
2023/04/05 06:37:46;;;;;;;6.47;5.13;;;3.10;70.90;;;;;;6062759;23;20412;-71
2023/04/05 06:40:12;;;;;;;6.73;5.30;;;3.10;70.70;;;;;;6085244;23;20403;-71
2023/04/05 06:42:38;;;;;;;7.03;5.10;;;3.10;71.20;;;;;;6110603;23;20401;-70
2023/04/05 06:45:06;;;;;;;5.30;4.70;;;3.10;71.40;;;;;;6084065;23;20384;-71
2023/04/05 06:47:34;;;;;;;8.70;5.40;;;3.10;71.10;;;;;;6094696;23;20456;-71
2023/04/05 06:50:01;;;;;;;9.03;6.00;;;3.20;70.80;;;;;;6123759;23;20371;-73
2023/04/05 06:52:27;;;;;;;6.40;4.97;;;3.30;70.90;;;;;;6063730;23;20427;-72
2023/04/05 06:54:53;;;;;;;7.90;4.63;;;3.30;69.80;;;;;;6123915;23;20369;-72
2023/04/05 06:57:19;;;;;;;11.43;6.90;;;3.30;69.40;;;;;;6096681;23;20463;-70
2023/04/05 06:59:44;;;;;;;8.63;6.10;;;3.40;70.00;;;;;;6085096;23;20392;-71
2023/04/05 07:02:12;;;;;;;8.37;6.13;;;3.50;68.70;;;;;;6085489;23;20179;-73
2023/04/05 07:04:41;;;;;;;6.20;4.30;;;3.50;68.40;;;;;;6071517;23;20380;-72
2023/04/05 07:07:07;;;;;;;6.20;5.07;;;3.50;68.10;;;;;;6095994;23;20373;-72
2023/04/05 07:09:32;;;;;;;9.20;5.87;;;3.60;68.30;;;;;;6086620;23;20401;-71
2023/04/05 07:12:00;;;;;;;10.13;5.23;;;3.60;68.10;;;;;;6063926;23;20168;-72
2023/04/05 07:14:25;;;;;;;8.10;5.80;;;3.70;68.60;;;;;;6075482;23;20147;-73
2023/04/05 07:16:51;;;;;;;9.73;4.70;;;3.70;68.50;;;;;;6062187;23;20380;-72
2023/04/05 07:19:17;;;;;;;7.10;5.00;;;3.80;68.40;;;;;;6087368;23;20228;-73
2023/04/05 07:21:43;;;;;;;10.90;6.20;;;3.90;68.00;;;;;;6092111;23;20176;-72
2023/04/05 07:24:09;;;;;;;8.03;5.50;;;3.90;66.90;;;;;;6066080;23;20476;-73
2023/04/05 07:26:36;;;;;;;7.10;4.97;;;4.10;65.70;;;;;;6089341;23;20236;-74
2023/04/05 07:29:05;;;;;;;7.57;4.80;;;4.10;65.00;;;;;;6098457;23;20399;-74
2023/04/05 07:31:30;;;;;;;7.97;4.43;;;4.20;65.10;;;;;;6063154;23;20444;-73
2023/04/05 07:34:00;;;;;;;8.03;5.93;;;4.30;64.90;;;;;;6090285;23;20385;-73
2023/04/05 07:36:30;;;;;;;6.50;3.93;;;4.30;63.90;;;;;;6099814;23;20137;-74
2023/04/05 07:38:56;;;;;;;9.03;5.70;;;4.40;63.70;;;;;;6068785;23;20420;-72
2023/04/05 07:41:25;;;;;;;5.70;4.67;;;4.50;61.50;;;;;;6091506;23;20563;-73
2023/04/05 07:43:50;;;;;;;8.70;4.77;;;4.60;60.00;;;;;;6041631;23;20417;-73
2023/04/05 07:46:18;;;;;;;8.17;5.57;;;4.70;59.90;;;;;;6124494;23;20369;-74
2023/04/05 07:48:47;;;;;;;7.47;4.83;;;4.70;60.40;;;;;;6072903;23;20152;-72
2023/04/05 07:51:13;;;;;;;7.67;4.83;;;4.80;60.50;;;;;;6099810;23;20387;-74
2023/04/05 07:53:40;;;;;;;7.80;5.57;;;4.80;59.90;;;;;;6122338;23;20384;-74
2023/04/05 07:56:10;;;;;;;9.40;5.40;;;4.90;60.10;;;;;;6128568;23;20137;-73
2023/04/05 07:58:40;;;;;;;8.77;5.73;;;4.90;59.50;;;;;;6100622;23;20817;-73
2023/04/05 08:01:08;;;;;;;6.57;4.60;;;5.00;58.90;;;;;;6069404;23;20379;-75
2023/04/05 08:03:35;;;;;;;6.47;4.90;;;5.10;58.40;;;;;;6072006;23;20400;-75
2023/04/05 08:06:17;;;;;;;9.57;5.67;;;5.30;58.50;;;;;;6044540;23;20427;-74
2023/04/05 08:08:44;;;;;;;6.97;5.40;;;5.30;58.30;;;;;;6095615;23;20381;-75
2023/04/05 08:11:10;;;;;;;10.17;4.47;;;5.40;58.40;;;;;;6097229;23;20457;-76
2023/04/05 08:13:39;;;;;;;8.00;5.07;;;5.50;57.70;;;;;;6094435;23;20373;-75
2023/04/05 08:16:05;;;;;;;9.50;5.50;;;5.60;57.60;;;;;;6083176;23;20137;-75
2023/04/05 08:18:31;;;;;;;8.40;4.87;;;5.60;56.80;;;;;;6071227;23;20459;-73
2023/04/05 08:20:57;;;;;;;8.37;5.70;;;5.70;56.70;;;;;;6073039;23;20383;-75
2023/04/05 08:23:24;;;;;;;7.37;6.33;;;5.90;56.50;;;;;;6134746;23;20203;-76
2023/04/05 08:25:50;;;;;;;13.60;6.73;;;5.90;55.70;;;;;;6130138;23;20365;-74
2023/04/05 08:28:16;;;;;;;7.97;6.30;;;5.90;55.00;;;;;;6092783;23;20392;-75
2023/04/05 08:30:45;;;;;;;6.60;4.87;;;6.00;55.40;;;;;;6093288;23;20400;-75
2023/04/05 08:33:15;;;;;;;8.03;5.40;;;6.10;54.70;;;;;;6095600;23;20388;-76
2023/04/05 08:35:43;;;;;;;7.93;4.27;;;6.20;54.30;;;;;;6097747;23;20460;-76
2023/04/05 08:38:11;;;;;;;6.87;4.73;;;6.20;54.20;;;;;;6096976;23;20426;-76
2023/04/05 08:40:45;;;;;;;7.43;5.40;;;6.30;53.90;;;;;;6072289;23;20399;-76
2023/04/05 08:43:33;;;;;;;8.77;5.43;;;6.40;53.50;;;;;;6093333;23;20404;-76
2023/04/05 08:46:01;;;;;;;7.20;4.80;;;6.40;53.20;;;;;;6072445;23;20427;-75
2023/04/05 08:48:36;;;;;;;5.77;4.40;;;6.40;53.00;;;;;;6121338;23;20373;-76
2023/04/05 08:51:02;;;;;;;6.90;5.50;;;6.40;53.10;;;;;;6096600;23;20467;-75
2023/04/05 08:53:28;;;;;;;6.57;5.23;;;6.50;52.60;;;;;;6095289;23;20396;-75
2023/04/05 08:56:00;;;;;;;6.27;4.77;;;6.60;52.00;;;;;;6099485;23;20371;-75
2023/04/05 08:58:28;;;;;;;9.20;5.33;;;6.70;50.60;;;;;;6078241;23;20426;-75
2023/04/05 09:00:56;;;;;;;8.97;4.70;;;6.80;49.90;;;;;;6123928;23;20402;-75
2023/04/05 09:03:28;;;;;;;9.43;5.50;;;6.80;49.60;;;;;;6099416;23;20419;-75
2023/04/05 09:05:57;;;;;;;6.10;5.17;;;6.90;49.40;;;;;;6100497;23;20439;-75
2023/04/05 09:08:25;;;;;;;7.00;4.77;;;7.00;49.90;;;;;;6099701;23;20390;-77
2023/04/05 09:10:51;;;;;;;9.00;5.20;;;7.00;49.00;;;;;;6079096;23;20466;-75
2023/04/05 09:13:22;;;;;;;7.27;4.70;;;7.00;49.10;;;;;;6136028;23;20395;-75
2023/04/05 09:15:48;;;;;;;6.00;5.37;;;7.10;49.20;;;;;;6123836;23;20367;-75
2023/04/05 09:18:16;;;;;;;7.40;5.23;;;7.20;49.30;;;;;;6100825;23;20403;-76
2023/04/05 09:21:03;;;;;;;15.60;6.57;;;7.30;48.70;;;;;;6127906;23;20416;-76
2023/04/05 09:23:33;;;;;;;8.00;6.20;;;7.50;48.50;;;;;;6103233;23;20420;-77
2023/04/05 09:25:59;;;;;;;8.13;4.83;;;7.40;48.20;;;;;;6099609;23;20386;-75
2023/04/05 09:28:46;;;;;;;6.20;5.33;;;7.40;48.20;;;;;;6151566;23;20356;-75
2023/04/05 09:34:07;;;;;;;6.20;5.50;;;7.70;47.30;;;;;;6118488;23;20507;-77
2023/04/05 09:36:34;;;;;;;6.40;4.10;;;7.70;47.70;;;;;;6047259;23;20152;-75
2023/04/05 09:39:06;;;;;;;5.20;4.70;;;7.70;47.80;;;;;;6095054;23;20424;-76
2023/04/05 09:41:32;;;;;;;6.83;5.70;;;7.80;47.70;;;;;;6078694;23;20427;-75
2023/04/05 09:43:59;;;;;;;6.43;4.70;;;7.90;47.50;;;;;;6123874;23;20376;-76
2023/04/05 09:46:38;;;;;;;10.80;5.47;;;8.00;47.50;;;;;;6102394;23;20390;-76
2023/04/05 09:49:08;;;;;;;6.40;5.63;;;8.10;47.10;;;;;;6075600;23;20380;-75
2023/04/05 09:51:37;;;;;;;7.53;5.57;;;8.20;46.20;;;;;;6102118;23;20407;-76
2023/04/05 09:54:10;;;;;;;7.40;5.60;;;8.20;46.40;;;;;;6123304;23;20387;-76
2023/04/05 09:56:52;;;;;;;9.40;5.50;;;8.20;45.50;;;;;;6103823;23;20383;-76
2023/04/05 09:59:19;;;;;;;9.40;5.60;;;8.20;45.70;;;;;;6103023;23;20396;-77
2023/04/05 10:01:50;;;;;;;7.60;5.27;;;8.30;45.70;;;;;;6102467;23;20499;-76
2023/04/05 10:04:18;;;;;;;7.43;6.27;;;8.40;45.80;;;;;;6101286;23;20444;-75
2023/04/05 10:06:45;;;;;;;6.53;5.00;;;8.40;45.80;;;;;;6100989;23;20371;-75
2023/04/05 10:09:14;;;;;;;7.77;5.77;;;8.50;45.90;;;;;;6100265;23;20383;-77
2023/04/05 10:12:02;;;;;;;8.20;5.77;;;8.70;45.80;;;;;;6140620;23;20451;-76
2023/04/05 10:14:32;;;;;;;7.23;5.47;;;8.90;45.20;;;;;;6081685;23;20443;-76
2023/04/05 10:17:23;;;;;;;4.10;3.70;;;8.90;44.70;;;;;;6150265;23;20407;-76
2023/04/05 10:20:35;;;;;;;6.97;5.30;;;9.00;44.40;;;;;;6103213;23;20427;-75
2023/04/05 10:23:15;;;;;;;5.30;4.80;;;9.10;44.00;;;;;;6103425;23;20451;-76
2023/04/05 10:25:51;;;;;;;7.57;5.50;;;9.20;43.40;;;;;;6127842;23;20371;-76
2023/04/05 10:28:45;;;;;;;5.33;4.40;;;9.20;42.70;;;;;;6126805;23;20395;-75
2023/04/05 10:31:28;;;;;;;4.87;4.13;;;9.20;42.50;;;;;;6102862;23;20411;-76
2023/04/05 10:34:06;;;;;;;6.20;4.90;;;9.30;41.80;;;;;;6126655;23;20403;-77
2023/04/05 10:37:00;;;;;;;6.83;3.73;;;9.30;41.10;;;;;;6101593;23;20410;-76
2023/04/05 10:39:45;;;;;;;6.97;4.77;;;9.30;41.00;;;;;;6052605;23;20396;-76
2023/04/05 10:42:26;;;;;;;7.17;5.50;;;9.30;40.80;;;;;;6101273;23;20414;-75
2023/04/05 10:45:05;;;;;;;6.27;3.90;;;9.40;40.90;;;;;;6127046;23;20380;-76
2023/04/05 10:47:41;;;;;;;6.97;4.60;;;9.30;40.70;;;;;;6104671;23;20453;-76
2023/04/05 10:50:11;;;;;;;9.80;5.00;;;9.40;40.50;;;;;;6124776;23;20375;-75
2023/04/05 10:52:41;;;;;;;5.67;4.90;;;9.50;40.80;;;;;;6100248;23;20489;-76
2023/04/05 10:55:09;;;;;;;8.43;6.43;;;9.60;40.60;;;;;;6102427;23;20506;-76
2023/04/05 10:57:36;;;;;;;7.57;5.90;;;9.70;40.60;;;;;;6127835;23;20483;-76
2023/04/05 11:00:03;;;;;;;5.40;4.43;;;9.70;40.30;;;;;;6126326;23;20701;-77
2023/04/05 11:05:34;;;;;;;5.37;4.27;;;9.70;40.30;;;;;;6121072;23;20467;-76
2023/04/05 11:08:06;;;;;;;4.87;4.33;;;9.60;40.10;;;;;;6098734;23;20444;-76
2023/04/05 11:10:52;;;;;;;8.37;5.30;;;9.60;40.40;;;;;;6101960;23;20392;-76
2023/04/05 11:13:21;;;;;;;5.57;5.07;;;9.70;40.30;;;;;;6097659;23;20504;-76
2023/04/05 11:16:08;;;;;;;8.10;5.53;;;9.80;40.70;;;;;;6075302;23;20409;-78
2023/04/05 11:18:43;;;;;;;5.50;4.43;;;9.80;40.70;;;;;;6073439;23;20436;-77
2023/04/05 11:21:15;;;;;;;5.80;4.73;;;9.80;40.30;;;;;;6096668;23;20380;-76
2023/04/05 11:24:18;;;;;;;4.90;4.03;;;9.80;40.20;;;;;;6070718;23;20389;-76
2023/04/05 11:26:47;;;;;;;6.80;5.90;;;9.90;40.40;;;;;;6130798;23;20440;-76
2023/04/05 11:29:17;;;;;;;7.90;5.53;;;9.90;40.20;;;;;;6119116;23;20428;-76
2023/04/05 11:31:59;;;;;;;10.73;8.07;;;10.10;39.50;;;;;;6131253;23;20412;-76
2023/04/05 11:34:25;;;;;;;8.07;5.63;;;10.10;38.50;;;;;;6097629;23;20404;-76
2023/04/05 11:36:57;;;;;;;7.87;6.00;;;10.20;39.10;;;;;;6132780;23;20435;-76
2023/04/05 11:39:30;;;;;;;10.23;5.20;;;10.10;38.90;;;;;;6092265;23;20429;-75
2023/04/05 11:42:14;;;;;;;7.65;5.68;;;10.20;38.50;;;;;;6107034;23;20410;-77
2023/04/05 11:45:10;;;;;;;4.47;4.07;;;10.30;38.70;;;;;;6163627;23;20200;-75
2023/04/05 11:47:40;;;;;;;7.97;5.57;;;10.40;38.70;;;;;;6150656;23;20379;-76
2023/04/05 11:50:09;;;;;;;7.63;6.00;;;10.40;37.70;;;;;;6127724;23;20444;-76
2023/04/05 11:53:33;;;;;;;8.20;6.13;;;10.30;37.40;;;;;;6126593;23;20404;-77
2023/04/05 11:56:11;;;;;;;8.20;6.00;;;10.30;37.30;;;;;;6149835;23;20379;-76
2023/04/05 11:58:38;;;;;;;10.97;6.73;;;10.40;38.10;;;;;;6125145;23;20426;-76
2023/04/05 12:01:07;;;;;;;7.57;6.03;;;10.40;38.00;;;;;;6153001;23;20402;-77
2023/04/05 12:03:34;;;;;;;5.67;4.70;;;10.60;37.50;;;;;;6149533;23;20398;-76
2023/04/05 12:06:06;;;;;;;7.60;5.70;;;10.70;37.10;;;;;;6100366;23;20422;-75
2023/04/05 12:11:11;;;;;;;4.83;4.33;;;10.80;36.90;;;;;;6150132;23;20402;-77
2023/04/05 12:13:41;;;;;;;5.93;5.17;;;10.80;37.00;;;;;;6126664;23;20423;-76
2023/04/05 12:16:08;;;;;;;5.83;5.10;;;10.80;36.60;;;;;;6102291;23;20439;-76
2023/04/05 12:18:56;;;;;;;8.20;7.33;;;10.90;37.00;;;;;;6125799;23;20426;-75
2023/04/05 12:21:25;;;;;;;8.73;7.10;;;11.00;36.60;;;;;;6131799;23;20416;-77
2023/04/05 12:24:00;;;;;;;6.70;6.07;;;10.90;36.40;;;;;;6073011;23;20373;-77
2023/04/05 12:26:29;;;;;;;9.10;6.50;;;10.70;36.10;;;;;;6096499;23;20396;-76
2023/04/05 12:28:58;;;;;;;5.30;4.27;;;10.70;36.60;;;;;;6071381;23;20381;-76
2023/04/05 12:31:57;;;;;;;7.17;4.37;;;10.80;36.80;;;;;;6068283;23;20413;-75
2023/04/05 12:34:24;;;;;;;7.00;5.60;;;11.00;36.70;;;;;;6095231;23;20392;-76
2023/04/05 12:36:55;;;;;;;8.63;6.13;;;11.10;36.20;;;;;;6099684;23;20405;-77
2023/04/05 12:39:30;;;;;;;8.63;5.63;;;11.10;35.50;;;;;;6041272;23;20426;-77
2023/04/05 12:42:18;;;;;;;9.57;7.30;;;11.10;35.80;;;;;;5990929;23;20419;-76
2023/04/05 12:50:47;;;;;;;9.93;6.30;;;11.30;34.40;;;;;;6115610;23;20495;-76
2023/04/05 12:53:43;;;;;;;6.97;6.20;;;11.10;34.70;;;;;;6009192;23;20412;-76
2023/04/05 12:58:59;;;;;;;7.30;6.03;;;11.00;35.30;;;;;;6101841;23;20442;-77
2023/04/05 13:01:25;;;;;;;6.80;5.67;;;11.10;35.00;;;;;;6056140;23;20442;-76
2023/04/05 13:03:51;;;;;;;7.93;5.40;;;11.10;34.80;;;;;;6066967;23;20439;-76
2023/04/05 13:06:17;;;;;;;7.38;6.65;;;11.10;34.60;;;;;;6078122;23;20347;-76
2023/04/05 13:08:51;;;;;;;14.30;8.03;;;11.00;34.50;;;;;;6069284;23;20174;-77
2023/04/05 13:11:17;;;;;;;7.43;6.30;;;11.00;34.70;;;;;;6068403;23;20157;-76
2023/04/05 13:13:45;;;;;;;6.53;5.80;;;11.00;33.90;;;;;;6055883;23;20750;-76
2023/04/05 13:22:08;;;;;;;6.53;5.60;;;11.00;34.00;;;;;;6139030;23;20476;-77
2023/04/05 13:24:35;;;;;;;6.30;5.70;;;11.00;34.10;;;;;;6078261;23;20393;-77
2023/04/05 13:27:01;;;;;;;11.43;7.40;;;10.90;34.20;;;;;;6093607;23;20429;-76
2023/04/05 13:29:29;;;;;;;8.17;5.27;;;11.00;34.40;;;;;;6050717;23;20386;-76
2023/04/05 13:32:04;;;;;;;8.20;6.73;;;11.10;34.30;;;;;;5973594;23;20394;-77
2023/04/05 13:34:30;;;;;;;11.77;7.60;;;11.10;33.80;;;;;;6016809;23;20531;-76
2023/04/05 13:36:56;;;;;;;10.00;7.00;;;11.10;34.20;;;;;;6015116;23;20442;-76